Time;durP1;ratioP1;P1;durP2;ratioP2;P2;SDS_P1;SDS_P2;PMS_P1;PMS_P2;Temp;Humidity;BMP_temperature;BMP_pressure;BME280_temperature;BME280_humidity;BME280_pressure;Samples;Min_cycle;Max_cycle;Signal;HPM_P1;HPM_P2
2023/12/13 00:00:00;;;;;;;3.97;0.77;;;;;;;;;;4988035;28;20022;-69
2023/12/13 00:02:25;;;;;;;3.55;1.27;;;;;;;;;;4986831;28;20281;-69
2023/12/13 00:04:50;;;;;;;2.20;0.83;;;;;;;;;;4983435;28;20022;-69
2023/12/13 00:07:16;;;;;;;7.22;0.63;;;;;;;;;;4986678;28;20267;-68
2023/12/13 00:09:41;;;;;;;1.75;0.80;;;;;;;;;;4987931;28;20790;-69
2023/12/13 00:12:06;;;;;;;3.10;0.98;;;;;;;;;;4986674;28;20033;-69
2023/12/13 00:14:31;;;;;;;2.67;0.77;;;;;;;;;;4984169;28;20041;-68
2023/12/13 00:16:56;;;;;;;3.33;1.05;;;;;;;;;;4984200;28;20022;-68
2023/12/13 00:19:22;;;;;;;1.47;0.83;;;;;;;;;;4983826;28;20030;-69
2023/12/13 00:21:47;;;;;;;1.38;0.82;;;;;;;;;;4982042;28;20317;-69
2023/12/13 00:24:12;;;;;;;5.38;1.30;;;;;;;;;;4990364;28;20142;-69
2023/12/13 00:26:38;;;;;;;2.37;1.17;;;;;;;;;;4983350;28;20093;-69
2023/12/13 00:29:03;;;;;;;1.98;0.77;;;;;;;;;;4985084;28;20617;-69
2023/12/13 00:31:28;;;;;;;6.90;1.07;;;;;;;;;;4987611;28;20038;-70
2023/12/13 00:33:53;;;;;;;2.50;1.07;;;;;;;;;;4985243;28;20357;-69
2023/12/13 00:36:18;;;;;;;5.97;1.30;;;;;;;;;;4984974;28;20254;-68
2023/12/13 00:38:44;;;;;;;4.05;1.05;;;;;;;;;;4986491;28;20018;-68
2023/12/13 00:41:09;;;;;;;3.50;1.00;;;;;;;;;;4985238;28;20474;-68
2023/12/13 00:43:34;;;;;;;2.08;0.75;;;;;;;;;;4982630;28;20293;-69
2023/12/13 00:45:59;;;;;;;2.50;0.80;;;;;;;;;;4985109;28;20026;-68
2023/12/13 00:48:24;;;;;;;4.88;1.48;;;;;;;;;;4980729;28;20626;-69
2023/12/13 00:50:49;;;;;;;3.53;0.87;;;;;;;;;;4983885;28;20030;-68
2023/12/13 00:53:15;;;;;;;2.88;0.88;;;;;;;;;;4984476;28;20309;-69
2023/12/13 00:55:40;;;;;;;4.53;0.70;;;;;;;;;;4982268;28;20076;-68
2023/12/13 00:58:05;;;;;;;2.35;0.95;;;;;;;;;;4984977;28;20027;-69
2023/12/13 01:00:31;;;;;;;5.40;0.90;;;;;;;;;;4983943;28;20087;-69
2023/12/13 01:02:56;;;;;;;3.22;0.80;;;;;;;;;;4980959;28;20285;-68
2023/12/13 01:05:21;;;;;;;2.20;1.20;;;;;;;;;;4984084;28;20038;-69
2023/12/13 01:07:46;;;;;;;8.40;1.23;;;;;;;;;;4983614;28;20749;-69
2023/12/13 01:10:11;;;;;;;4.70;1.10;;;;;;;;;;4968641;28;20022;-68
2023/12/13 01:12:39;;;;;;;3.72;1.10;;;;;;;;;;4983850;28;20281;-68
2023/12/13 01:15:05;;;;;;;3.58;1.42;;;;;;;;;;4984949;28;20061;-69
2023/12/13 01:17:32;;;;;;;4.38;1.27;;;;;;;;;;4980648;28;20104;-69
2023/12/13 01:19:57;;;;;;;2.60;1.05;;;;;;;;;;4984095;28;20676;-69
2023/12/13 01:22:22;;;;;;;5.88;1.63;;;;;;;;;;4983316;28;20054;-68
2023/12/13 01:24:47;;;;;;;4.50;1.33;;;;;;;;;;4983714;28;20022;-69
2023/12/13 01:27:13;;;;;;;6.67;1.50;;;;;;;;;;4983532;28;20257;-69
2023/12/13 01:29:38;;;;;;;5.03;1.37;;;;;;;;;;4981832;28;20262;-68
2023/12/13 01:32:03;;;;;;;3.73;1.10;;;;;;;;;;4982800;28;20286;-68
2023/12/13 01:34:29;;;;;;;5.17;1.53;;;;;;;;;;4987541;28;20578;-69
2023/12/13 01:36:54;;;;;;;4.90;0.88;;;;;;;;;;4982351;28;20261;-68
2023/12/13 01:39:19;;;;;;;8.65;1.23;;;;;;;;;;4982733;28;20388;-69
2023/12/13 01:41:44;;;;;;;1.17;0.60;;;;;;;;;;4985532;28;20281;-69
2023/12/13 01:44:10;;;;;;;5.55;0.70;;;;;;;;;;4986712;28;20022;-69
2023/12/13 01:46:36;;;;;;;4.07;1.20;;;;;;;;;;4979882;28;20026;-69
2023/12/13 01:49:05;;;;;;;2.38;0.60;;;;;;;;;;4984608;28;20038;-68
2023/12/13 01:51:30;;;;;;;4.05;1.00;;;;;;;;;;4981871;28;20050;-68
2023/12/13 01:53:56;;;;;;;5.23;0.87;;;;;;;;;;4981896;28;20113;-68
2023/12/13 01:56:21;;;;;;;2.17;0.85;;;;;;;;;;4981314;28;20257;-68
2023/12/13 01:58:46;;;;;;;2.55;0.85;;;;;;;;;;4980932;28;20054;-69
2023/12/13 02:01:12;;;;;;;4.93;0.90;;;;;;;;;;4982615;28;20080;-69
2023/12/13 02:03:37;;;;;;;3.85;1.13;;;;;;;;;;4985402;28;20026;-69
2023/12/13 02:06:03;;;;;;;3.97;0.88;;;;;;;;;;4987090;28;20021;-69
2023/12/13 02:08:29;;;;;;;1.63;0.77;;;;;;;;;;4979854;28;20018;-69
2023/12/13 02:10:55;;;;;;;8.82;1.23;;;;;;;;;;4980141;28;20053;-69
2023/12/13 02:13:21;;;;;;;3.42;1.20;;;;;;;;;;4984738;28;20026;-69
2023/12/13 02:15:46;;;;;;;3.55;0.98;;;;;;;;;;4986575;28;20030;-68
2023/12/13 02:18:14;;;;;;;2.10;0.85;;;;;;;;;;4985155;28;20058;-69
2023/12/13 02:20:39;;;;;;;6.53;1.17;;;;;;;;;;4978888;28;20022;-69
2023/12/13 02:23:04;;;;;;;4.45;1.23;;;;;;;;;;4982486;28;20549;-69
2023/12/13 02:25:35;;;;;;;2.70;0.80;;;;;;;;;;4987466;28;20034;-69
2023/12/13 02:28:01;;;;;;;8.30;0.88;;;;;;;;;;4983684;28;20344;-68
2023/12/13 02:30:27;;;;;;;2.60;0.85;;;;;;;;;;4981065;28;20018;-69
2023/12/13 02:32:52;;;;;;;9.48;1.30;;;;;;;;;;4985038;28;20390;-69
2023/12/13 02:35:17;;;;;;;7.22;1.25;;;;;;;;;;4984406;28;20432;-69
2023/12/13 02:37:44;;;;;;;1.60;0.70;;;;;;;;;;4980158;28;20408;-69
2023/12/13 02:40:10;;;;;;;2.42;1.23;;;;;;;;;;4984577;28;20305;-69
2023/12/13 02:42:35;;;;;;;5.70;1.50;;;;;;;;;;4967066;28;20104;-69
2023/12/13 02:45:00;;;;;;;2.70;1.00;;;;;;;;;;4985985;28;20027;-68
2023/12/13 02:47:25;;;;;;;8.73;1.85;;;;;;;;;;4982832;28;20304;-69
2023/12/13 02:49:50;;;;;;;5.78;1.15;;;;;;;;;;4985014;28;20022;-68
2023/12/13 02:52:15;;;;;;;7.00;1.07;;;;;;;;;;4981448;28;20477;-69
2023/12/13 02:54:41;;;;;;;5.57;1.30;;;;;;;;;;4983598;28;20349;-68
2023/12/13 02:57:06;;;;;;;4.47;1.02;;;;;;;;;;4981877;28;20729;-69
2023/12/13 02:59:31;;;;;;;3.83;1.23;;;;;;;;;;4981267;28;20050;-69
2023/12/13 03:01:56;;;;;;;8.02;1.00;;;;;;;;;;4982360;28;20290;-68
2023/12/13 03:04:21;;;;;;;10.10;1.33;;;;;;;;;;4983072;28;20030;-69
2023/12/13 03:06:47;;;;;;;0.70;0.35;;;;;;;;;;4961795;28;20274;-68
2023/12/13 03:09:12;;;;;;;2.87;0.83;;;;;;;;;;4984011;28;20062;-69
2023/12/13 03:11:39;;;;;;;1.67;0.67;;;;;;;;;;4990619;28;20273;-69
2023/12/13 03:14:04;;;;;;;1.20;0.60;;;;;;;;;;4989188;28;20269;-69
2023/12/13 03:16:29;;;;;;;0.73;0.65;;;;;;;;;;4986076;28;20049;-68
2023/12/13 03:18:54;;;;;;;3.43;0.83;;;;;;;;;;4980335;28;20038;-69
2023/12/13 03:21:20;;;;;;;1.80;0.93;;;;;;;;;;4990121;28;20368;-68
2023/12/13 03:23:45;;;;;;;2.37;0.40;;;;;;;;;;4986968;28;20286;-69
2023/12/13 03:26:10;;;;;;;0.20;0.20;;;;;;;;;;4986091;28;20332;-68
2023/12/13 03:28:35;;;;;;;8.00;1.37;;;;;;;;;;4982230;28;20254;-69
2023/12/13 03:31:05;;;;;;;2.20;0.50;;;;;;;;;;4988198;28;20265;-69
2023/12/13 03:33:30;;;;;;;1.40;1.30;;;;;;;;;;4989081;28;20034;-68
2023/12/13 03:35:56;;;;;;;3.05;1.35;;;;;;;;;;4984664;28;20034;-69
2023/12/13 03:38:21;;;;;;;8.32;1.33;;;;;;;;;;4983883;28;20075;-69
2023/12/13 03:40:46;;;;;;;2.53;0.93;;;;;;;;;;4986722;28;20026;-69
2023/12/13 03:43:11;;;;;;;4.40;1.38;;;;;;;;;;4989037;28;20887;-69
2023/12/13 03:45:36;;;;;;;12.07;1.27;;;;;;;;;;4984228;28;20022;-68
2023/12/13 03:48:01;;;;;;;2.10;0.90;;;;;;;;;;4989335;28;20026;-69
2023/12/13 03:50:27;;;;;;;3.97;0.93;;;;;;;;;;4987635;28;20769;-69
2023/12/13 03:52:52;;;;;;;5.60;1.23;;;;;;;;;;4990820;28;20269;-69
2023/12/13 03:55:17;;;;;;;3.55;1.00;;;;;;;;;;4986416;28;20595;-69
2023/12/13 03:57:42;;;;;;;11.20;1.30;;;;;;;;;;4977768;28;20050;-69
2023/12/13 04:00:08;;;;;;;6.13;1.50;;;;;;;;;;4984609;28;20049;-69
2023/12/13 04:02:34;;;;;;;5.95;1.00;;;;;;;;;;4991546;28;20250;-69
2023/12/13 04:04:59;;;;;;;2.38;0.90;;;;;;;;;;4985471;28;20088;-69
2023/12/13 04:07:24;;;;;;;5.07;0.87;;;;;;;;;;4980180;28;20082;-69
2023/12/13 04:09:49;;;;;;;3.27;0.93;;;;;;;;;;4980452;28;20254;-69
2023/12/13 04:12:15;;;;;;;3.47;1.00;;;;;;;;;;4986234;28;20270;-68
2023/12/13 04:14:41;;;;;;;8.68;1.08;;;;;;;;;;4990961;28;20307;-68
2023/12/13 04:17:06;;;;;;;1.10;0.52;;;;;;;;;;4986876;28;20034;-68
2023/12/13 04:19:31;;;;;;;7.37;1.13;;;;;;;;;;4978047;28;20543;-68
2023/12/13 04:21:56;;;;;;;9.35;1.00;;;;;;;;;;4983158;28;20318;-68
2023/12/13 04:24:21;;;;;;;10.13;1.00;;;;;;;;;;4983531;28;20026;-68
2023/12/13 04:26:47;;;;;;;3.97;1.00;;;;;;;;;;4988303;28;20262;-68
2023/12/13 04:29:12;;;;;;;7.47;1.10;;;;;;;;;;4989998;28;20081;-68
2023/12/13 04:31:38;;;;;;;14.87;0.77;;;;;;;;;;4983720;28;20693;-67
2023/12/13 04:34:03;;;;;;;6.05;0.93;;;;;;;;;;4984379;28;20680;-68
2023/12/13 04:36:29;;;;;;;3.70;1.27;;;;;;;;;;4981450;28;20030;-68
2023/12/13 04:38:54;;;;;;;10.40;1.90;;;;;;;;;;4986386;28;20274;-68
2023/12/13 04:41:19;;;;;;;10.25;0.70;;;;;;;;;;4980495;28;20129;-68
2023/12/13 04:43:44;;;;;;;4.38;0.82;;;;;;;;;;4984641;28;20056;-68
2023/12/13 04:46:09;;;;;;;3.87;1.37;;;;;;;;;;4984591;28;20404;-68
2023/12/13 04:48:35;;;;;;;6.70;1.07;;;;;;;;;;4988762;28;20353;-67
2023/12/13 04:51:00;;;;;;;14.17;1.23;;;;;;;;;;4982163;28;20262;-68
2023/12/13 04:53:25;;;;;;;1.70;0.75;;;;;;;;;;4981088;28;20313;-68
2023/12/13 04:55:50;;;;;;;15.30;1.77;;;;;;;;;;4984940;28;20034;-67
2023/12/13 04:58:16;;;;;;;7.03;2.00;;;;;;;;;;4981050;28;20262;-67
2023/12/13 05:00:42;;;;;;;2.55;1.10;;;;;;;;;;4985411;28;20335;-67
2023/12/13 05:03:07;;;;;;;9.07;1.50;;;;;;;;;;4982254;28;20600;-67
2023/12/13 05:05:32;;;;;;;4.35;0.70;;;;;;;;;;4981930;28;20007;-67
2023/12/13 05:07:58;;;;;;;13.60;0.87;;;;;;;;;;4980772;28;20044;-67
2023/12/13 05:10:23;;;;;;;10.80;1.03;;;;;;;;;;4984335;28;20963;-67
2023/12/13 05:12:48;;;;;;;5.10;1.23;;;;;;;;;;4982790;28;20345;-67
2023/12/13 05:15:13;;;;;;;4.68;0.68;;;;;;;;;;4982082;28;20254;-67
2023/12/13 05:17:38;;;;;;;2.53;1.10;;;;;;;;;;4979819;28;20465;-67
2023/12/13 05:20:04;;;;;;;6.60;1.13;;;;;;;;;;4981732;28;20031;-67
2023/12/13 05:22:29;;;;;;;3.47;0.95;;;;;;;;;;4980273;28;20342;-67
2023/12/13 05:24:54;;;;;;;3.65;0.60;;;;;;;;;;4965800;28;20493;-69
2023/12/13 05:27:20;;;;;;;0.80;0.47;;;;;;;;;;4985210;28;20030;-68
2023/12/13 05:29:45;;;;;;;1.08;0.35;;;;;;;;;;4981194;28;20269;-67
2023/12/13 05:32:10;;;;;;;9.07;0.80;;;;;;;;;;4983836;28;20076;-67
2023/12/13 05:34:35;;;;;;;1.23;0.63;;;;;;;;;;4983001;28;20269;-67
2023/12/13 05:37:05;;;;;;;5.20;1.13;;;;;;;;;;4984591;28;20264;-67
2023/12/13 05:39:30;;;;;;;6.82;1.27;;;;;;;;;;4982866;28;20842;-67
2023/12/13 05:41:56;;;;;;;5.50;0.68;;;;;;;;;;4985392;28;20109;-67
2023/12/13 05:44:21;;;;;;;5.75;1.35;;;;;;;;;;4980255;28;20029;-67
2023/12/13 05:46:47;;;;;;;8.90;1.30;;;;;;;;;;4979077;28;20022;-67
2023/12/13 05:49:12;;;;;;;1.87;0.63;;;;;;;;;;4981403;28;20624;-67
2023/12/13 05:51:37;;;;;;;11.35;1.55;;;;;;;;;;4977719;28;20269;-67
2023/12/13 05:54:02;;;;;;;5.13;1.33;;;;;;;;;;4981561;28;20561;-67
2023/12/13 05:56:28;;;;;;;1.00;0.50;;;;;;;;;;4983705;28;20261;-67
2023/12/13 05:58:53;;;;;;;12.07;1.57;;;;;;;;;;4984385;28;20031;-67
2023/12/13 06:01:18;;;;;;;8.15;1.17;;;;;;;;;;4981395;28;20265;-67
2023/12/13 06:03:43;;;;;;;3.73;1.43;;;;;;;;;;4983394;28;20041;-67
2023/12/13 06:06:09;;;;;;;5.70;1.17;;;;;;;;;;4979963;28;20364;-67
2023/12/13 06:08:34;;;;;;;5.85;1.10;;;;;;;;;;4981036;28;20285;-67
2023/12/13 06:10:59;;;;;;;3.37;0.90;;;;;;;;;;4981856;28;20023;-68
2023/12/13 06:13:24;;;;;;;3.03;1.23;;;;;;;;;;4982705;28;20274;-67
2023/12/13 06:15:49;;;;;;;9.82;1.45;;;;;;;;;;4980673;28;20294;-67
2023/12/13 06:18:15;;;;;;;4.30;1.07;;;;;;;;;;4983290;28;20445;-67
2023/12/13 06:20:40;;;;;;;9.25;1.08;;;;;;;;;;4986126;28;20277;-67
2023/12/13 06:23:05;;;;;;;7.20;3.10;;;;;;;;;;4982554;28;20026;-68
2023/12/13 06:25:30;;;;;;;15.43;3.40;;;;;;;;;;4984867;28;20062;-67
2023/12/13 06:27:56;;;;;;;14.20;3.80;;;;;;;;;;4979579;28;21061;-68
2023/12/13 06:30:21;;;;;;;21.42;4.25;;;;;;;;;;4981967;28;20321;-67
2023/12/13 06:32:46;;;;;;;7.67;2.17;;;;;;;;;;4979474;28;20018;-67
2023/12/13 06:35:13;;;;;;;3.30;0.90;;;;;;;;;;4980273;28;20847;-67
2023/12/13 06:37:38;;;;;;;7.75;1.40;;;;;;;;;;4981525;28;20285;-67
2023/12/13 06:40:04;;;;;;;4.32;0.93;;;;;;;;;;4979998;28;20033;-67
2023/12/13 06:42:29;;;;;;;9.32;1.63;;;;;;;;;;4982538;28;20069;-67
2023/12/13 06:44:54;;;;;;;4.15;0.90;;;;;;;;;;4986293;28;20018;-67
2023/12/13 06:47:20;;;;;;;8.82;1.65;;;;;;;;;;4985527;28;20037;-67
2023/12/13 06:49:45;;;;;;;15.85;1.60;;;;;;;;;;4982501;28;20019;-67
2023/12/13 06:52:11;;;;;;;3.20;1.17;;;;;;;;;;4986000;28;20404;-67
2023/12/13 06:54:36;;;;;;;3.57;1.40;;;;;;;;;;4985583;28;20315;-67
2023/12/13 06:57:01;;;;;;;23.33;2.23;;;;;;;;;;4985280;28;20703;-67
2023/12/13 06:59:26;;;;;;;15.70;1.90;;;;;;;;;;4984910;28;20258;-68
2023/12/13 07:01:51;;;;;;;5.90;0.95;;;;;;;;;;4984192;28;20054;-68
2023/12/13 07:04:17;;;;;;;3.75;0.95;;;;;;;;;;4989499;28;20062;-67
2023/12/13 07:06:42;;;;;;;5.82;1.05;;;;;;;;;;4988655;28;20018;-67
2023/12/13 07:09:08;;;;;;;3.90;1.17;;;;;;;;;;4987803;28;20739;-68
2023/12/13 07:11:33;;;;;;;6.13;1.10;;;;;;;;;;4988328;28;20269;-67
2023/12/13 07:13:59;;;;;;;5.93;1.33;;;;;;;;;;4991117;28;20038;-68
2023/12/13 07:16:25;;;;;;;22.20;1.90;;;;;;;;;;4988120;28;20273;-67
2023/12/13 07:18:50;;;;;;;11.37;1.63;;;;;;;;;;4988826;28;20026;-67
2023/12/13 07:21:15;;;;;;;8.00;1.50;;;;;;;;;;4989082;28;20328;-67
2023/12/13 07:23:41;;;;;;;13.50;1.93;;;;;;;;;;4990896;28;20376;-67
2023/12/13 07:26:06;;;;;;;13.82;1.55;;;;;;;;;;4992465;28;20254;-67
2023/12/13 07:28:32;;;;;;;8.60;1.60;;;;;;;;;;4973254;28;20030;-67
2023/12/13 07:30:57;;;;;;;10.32;2.08;;;;;;;;;;4990106;28;20038;-67
2023/12/13 07:33:23;;;;;;;5.53;1.25;;;;;;;;;;4990526;28;20033;-67
2023/12/13 07:35:48;;;;;;;3.47;1.30;;;;;;;;;;4991407;28;20037;-68
2023/12/13 07:38:16;;;;;;;2.08;0.82;;;;;;;;;;4991081;28;20057;-67
2023/12/13 07:40:44;;;;;;;5.00;1.25;;;;;;;;;;4990636;28;20417;-67
2023/12/13 07:43:09;;;;;;;8.00;1.20;;;;;;;;;;4990508;28;20049;-67
2023/12/13 07:45:34;;;;;;;9.43;2.13;;;;;;;;;;4989031;28;20033;-68
2023/12/13 07:48:00;;;;;;;8.17;2.03;;;;;;;;;;4992059;28;20026;-67
2023/12/13 07:50:25;;;;;;;13.70;2.17;;;;;;;;;;4988056;28;20750;-67
2023/12/13 07:52:50;;;;;;;2.58;0.93;;;;;;;;;;4987783;28;20281;-69
2023/12/13 07:55:19;;;;;;;7.83;2.10;;;;;;;;;;4990698;28;20086;-67
2023/12/13 07:57:45;;;;;;;5.45;1.27;;;;;;;;;;4988159;28;20657;-67
2023/12/13 08:00:11;;;;;;;4.57;0.57;;;;;;;;;;4988916;28;20041;-67
2023/12/13 08:02:36;;;;;;;6.22;2.17;;;;;;;;;;4990177;28;20462;-67
2023/12/13 08:05:01;;;;;;;12.10;1.70;;;;;;;;;;4991323;28;20019;-67
2023/12/13 08:07:26;;;;;;;13.10;1.83;;;;;;;;;;4991291;28;20027;-67
2023/12/13 08:09:53;;;;;;;2.50;1.20;;;;;;;;;;4984148;28;20479;-67
2023/12/13 08:12:18;;;;;;;7.10;1.52;;;;;;;;;;4991106;28;20744;-67
2023/12/13 08:14:43;;;;;;;10.75;1.65;;;;;;;;;;4990435;28;20058;-67
2023/12/13 08:17:10;;;;;;;9.40;1.70;;;;;;;;;;4987984;28;20066;-67
2023/12/13 08:19:36;;;;;;;15.85;1.42;;;;;;;;;;4988484;28;20105;-68
2023/12/13 08:22:01;;;;;;;6.43;1.48;;;;;;;;;;4987668;28;20077;-67
2023/12/13 08:24:27;;;;;;;5.32;1.52;;;;;;;;;;4984873;28;20092;-67
2023/12/13 08:26:52;;;;;;;4.33;1.07;;;;;;;;;;4987478;28;20490;-67
2023/12/13 08:29:17;;;;;;;6.07;1.60;;;;;;;;;;4991658;28;20261;-67
2023/12/13 08:31:42;;;;;;;7.33;1.90;;;;;;;;;;4990927;28;20779;-67
2023/12/13 08:34:08;;;;;;;2.40;0.93;;;;;;;;;;4990558;28;20269;-67
2023/12/13 08:36:33;;;;;;;17.05;2.03;;;;;;;;;;4989926;28;20026;-67
2023/12/13 08:38:58;;;;;;;5.50;1.47;;;;;;;;;;4989144;28;20026;-67
2023/12/13 08:41:23;;;;;;;2.20;0.68;;;;;;;;;;4990747;28;20273;-67
2023/12/13 08:43:48;;;;;;;10.02;1.63;;;;;;;;;;4988876;28;20033;-67
2023/12/13 08:46:14;;;;;;;5.80;0.93;;;;;;;;;;4990334;28;20097;-67
2023/12/13 08:48:39;;;;;;;7.00;1.57;;;;;;;;;;4986450;28;20276;-67
2023/12/13 08:51:04;;;;;;;8.32;1.45;;;;;;;;;;4991203;28;20258;-67
2023/12/13 08:53:29;;;;;;;7.05;1.80;;;;;;;;;;4988029;28;20033;-67
2023/12/13 08:55:55;;;;;;;9.23;1.97;;;;;;;;;;4990656;28;20015;-67
2023/12/13 08:58:20;;;;;;;12.70;1.88;;;;;;;;;;4990608;28;20356;-67
2023/12/13 09:00:45;;;;;;;11.90;2.00;;;;;;;;;;4990329;28;20101;-67
2023/12/13 09:03:10;;;;;;;6.83;1.60;;;;;;;;;;4988738;28;20282;-67
2023/12/13 09:05:37;;;;;;;6.33;1.83;;;;;;;;;;4989572;28;20308;-67
2023/12/13 09:08:03;;;;;;;4.13;2.55;;;;;;;;;;4988123;28;20253;-67
2023/12/13 09:10:28;;;;;;;10.70;1.45;;;;;;;;;;4985910;28;20023;-67
2023/12/13 09:12:53;;;;;;;8.97;1.70;;;;;;;;;;4983921;28;20093;-67
2023/12/13 09:15:19;;;;;;;3.05;1.23;;;;;;;;;;4990008;28;20270;-67
2023/12/13 09:17:47;;;;;;;10.43;2.08;;;;;;;;;;4986892;28;20033;-69
2023/12/13 09:20:15;;;;;;;14.00;1.70;;;;;;;;;;4990142;28;20505;-69
2023/12/13 09:22:42;;;;;;;7.05;1.42;;;;;;;;;;4984454;28;20045;-69
2023/12/13 09:25:07;;;;;;;6.07;1.13;;;;;;;;;;4989470;28;20056;-69
2023/12/13 09:27:33;;;;;;;4.60;1.42;;;;;;;;;;4990009;28;20050;-69
2023/12/13 09:29:58;;;;;;;6.75;1.63;;;;;;;;;;4984476;28;20021;-69
2023/12/13 09:32:23;;;;;;;4.80;1.53;;;;;;;;;;4986722;28;20028;-69
2023/12/13 09:34:48;;;;;;;2.67;0.80;;;;;;;;;;4985105;28;20292;-69
2023/12/13 09:37:14;;;;;;;10.10;1.65;;;;;;;;;;4986783;28;20356;-69
2023/12/13 09:39:39;;;;;;;7.25;1.30;;;;;;;;;;4982129;28;20093;-68
2023/12/13 09:42:04;;;;;;;2.10;0.90;;;;;;;;;;4986034;28;20033;-69
2023/12/13 09:44:30;;;;;;;1.07;0.93;;;;;;;;;;4985422;28;20344;-68
2023/12/13 09:46:57;;;;;;;9.23;1.48;;;;;;;;;;4986320;28;20783;-69
2023/12/13 09:49:23;;;;;;;18.38;3.35;;;;;;;;;;4989245;28;20022;-69
2023/12/13 09:51:49;;;;;;;2.92;1.20;;;;;;;;;;4986117;28;20022;-69
2023/12/13 09:54:14;;;;;;;4.00;0.85;;;;;;;;;;4984326;28;20026;-68
2023/12/13 09:56:39;;;;;;;4.57;1.15;;;;;;;;;;4987716;28;20091;-69
2023/12/13 09:59:05;;;;;;;1.77;1.10;;;;;;;;;;4984847;28;20084;-69
2023/12/13 10:01:30;;;;;;;3.58;2.08;;;;;;;;;;4986316;28;20390;-69
2023/12/13 10:03:56;;;;;;;5.72;1.27;;;;;;;;;;4988515;28;20025;-69
2023/12/13 10:06:21;;;;;;;2.72;1.23;;;;;;;;;;4989749;28;20513;-69
2023/12/13 10:09:01;;;;;;;5.10;1.60;;;;;;;;;;4985414;28;20665;-70
2023/12/13 10:11:26;;;;;;;8.60;1.65;;;;;;;;;;4986110;28;20413;-69
2023/12/13 10:13:51;;;;;;;10.23;1.90;;;;;;;;;;4986006;28;20019;-69
2023/12/13 10:16:16;;;;;;;9.43;1.80;;;;;;;;;;4983755;28;20033;-69
2023/12/13 10:18:42;;;;;;;8.00;1.63;;;;;;;;;;4982601;28;20037;-69
2023/12/13 10:21:10;;;;;;;5.55;1.77;;;;;;;;;;4988927;28;20022;-69
2023/12/13 10:23:36;;;;;;;3.78;1.30;;;;;;;;;;4986879;28;20028;-69
2023/12/13 10:26:02;;;;;;;4.32;1.50;;;;;;;;;;4986471;28;20074;-69
2023/12/13 10:28:27;;;;;;;4.53;1.60;;;;;;;;;;4989523;28;20037;-69
2023/12/13 10:30:52;;;;;;;0.65;0.50;;;;;;;;;;4988397;28;20023;-69
2023/12/13 10:33:18;;;;;;;7.32;1.83;;;;;;;;;;4989466;28;20185;-69
2023/12/13 10:35:43;;;;;;;9.98;1.98;;;;;;;;;;4984439;28;20097;-69
2023/12/13 10:38:13;;;;;;;8.73;2.15;;;;;;;;;;4983581;28;20813;-69
2023/12/13 10:40:39;;;;;;;2.83;1.67;;;;;;;;;;4984285;28;20097;-69
2023/12/13 10:43:08;;;;;;;6.80;1.55;;;;;;;;;;4985351;28;20066;-69
2023/12/13 10:45:34;;;;;;;3.87;1.23;;;;;;;;;;4986744;28;20429;-69
2023/12/13 10:48:00;;;;;;;7.68;1.83;;;;;;;;;;4984068;28;20029;-69
2023/12/13 10:50:26;;;;;;;11.07;2.42;;;;;;;;;;4980385;28;20023;-69
2023/12/13 10:52:52;;;;;;;6.75;1.80;;;;;;;;;;4980273;28;20011;-69
2023/12/13 10:55:18;;;;;;;11.57;2.53;;;;;;;;;;4984531;28;20049;-69
2023/12/13 10:57:43;;;;;;;4.78;1.95;;;;;;;;;;4988840;28;20022;-69
2023/12/13 11:00:09;;;;;;;12.57;2.10;;;;;;;;;;4989086;28;20107;-69
2023/12/13 11:02:37;;;;;;;3.50;1.15;;;;;;;;;;4988361;28;20026;-69
2023/12/13 11:05:03;;;;;;;10.40;2.55;;;;;;;;;;4982617;28;20493;-69
2023/12/13 11:07:28;;;;;;;9.77;2.47;;;;;;;;;;4989157;28;20046;-69
2023/12/13 11:09:54;;;;;;;11.98;2.08;;;;;;;;;;4988908;28;20033;-69
2023/12/13 11:12:20;;;;;;;13.95;2.22;;;;;;;;;;4989264;28;20093;-69
2023/12/13 11:14:51;;;;;;;7.90;2.13;;;;;;;;;;4987617;28;20393;-70
2023/12/13 11:17:21;;;;;;;10.15;2.13;;;;;;;;;;4986799;28;20030;-69
2023/12/13 11:19:47;;;;;;;11.13;3.03;;;;;;;;;;4988623;28;20375;-69
2023/12/13 11:22:12;;;;;;;9.07;2.05;;;;;;;;;;4988450;28;20049;-69
2023/12/13 11:24:39;;;;;;;8.68;2.53;;;;;;;;;;4986741;28;20426;-69
2023/12/13 11:27:08;;;;;;;7.85;1.90;;;;;;;;;;4971492;28;20023;-69
2023/12/13 11:29:34;;;;;;;10.35;2.28;;;;;;;;;;4988158;28;20014;-69
2023/12/13 11:32:00;;;;;;;7.17;2.27;;;;;;;;;;4992212;28;20547;-69
2023/12/13 11:34:32;;;;;;;10.25;2.55;;;;;;;;;;4991469;28;20696;-69
2023/12/13 11:36:57;;;;;;;12.90;2.50;;;;;;;;;;4992511;28;20093;-69
2023/12/13 11:39:23;;;;;;;5.35;2.03;;;;;;;;;;4992218;28;20113;-69
2023/12/13 11:41:48;;;;;;;10.15;2.05;;;;;;;;;;4991983;28;20107;-69
2023/12/13 11:44:13;;;;;;;21.17;2.70;;;;;;;;;;4991038;28;20023;-69
2023/12/13 11:46:39;;;;;;;13.70;2.67;;;;;;;;;;4991664;28;20293;-69
2023/12/13 11:49:04;;;;;;;13.60;2.40;;;;;;;;;;4991891;28;20090;-69
2023/12/13 11:51:29;;;;;;;12.07;2.10;;;;;;;;;;4990918;28;20265;-69
2023/12/13 11:53:54;;;;;;;12.77;2.50;;;;;;;;;;4992234;28;20340;-69
2023/12/13 11:56:21;;;;;;;6.88;2.50;;;;;;;;;;4990108;28;20274;-69
2023/12/13 11:58:47;;;;;;;14.40;2.75;;;;;;;;;;4991511;28;20101;-69
2023/12/13 12:01:15;;;;;;;13.18;2.80;;;;;;;;;;4991270;28;20030;-69
2023/12/13 12:03:41;;;;;;;4.22;1.80;;;;;;;;;;4991032;28;20117;-69
2023/12/13 12:06:13;;;;;;;12.40;1.98;;;;;;;;;;4990157;28;20109;-69
2023/12/13 12:08:38;;;;;;;13.27;2.53;;;;;;;;;;4988636;28;20026;-69
2023/12/13 12:11:04;;;;;;;11.40;2.22;;;;;;;;;;4991787;28;20022;-69
2023/12/13 12:13:29;;;;;;;13.52;2.80;;;;;;;;;;4990515;28;20046;-69
2023/12/13 12:15:54;;;;;;;7.85;2.42;;;;;;;;;;4990468;28;20023;-69
2023/12/13 12:18:19;;;;;;;9.80;2.00;;;;;;;;;;4991743;28;20034;-69
2023/12/13 12:20:45;;;;;;;16.77;2.60;;;;;;;;;;4989477;28;20261;-69
2023/12/13 12:23:11;;;;;;;9.48;2.47;;;;;;;;;;4990185;28;20307;-69
2023/12/13 12:25:38;;;;;;;10.65;2.08;;;;;;;;;;4988397;28;20022;-69
2023/12/13 12:28:08;;;;;;;11.40;1.98;;;;;;;;;;4988945;28;20018;-69
2023/12/13 12:30:33;;;;;;;7.97;2.50;;;;;;;;;;4990851;28;20087;-69
2023/12/13 12:32:58;;;;;;;9.18;2.33;;;;;;;;;;4987051;28;20019;-69
2023/12/13 12:35:23;;;;;;;12.00;2.27;;;;;;;;;;4989576;28;20162;-69
2023/12/13 12:37:49;;;;;;;9.63;2.87;;;;;;;;;;4987536;28;20274;-69
2023/12/13 12:40:14;;;;;;;9.93;2.60;;;;;;;;;;4990897;28;20261;-69
2023/12/13 12:42:41;;;;;;;9.50;2.47;;;;;;;;;;4986824;28;20380;-69
2023/12/13 12:45:07;;;;;;;11.85;2.65;;;;;;;;;;4990514;28;20065;-69
2023/12/13 12:47:32;;;;;;;11.93;2.38;;;;;;;;;;4989284;28;20050;-69
2023/12/13 12:49:57;;;;;;;9.17;1.80;;;;;;;;;;4989322;28;20037;-69
2023/12/13 12:52:23;;;;;;;16.13;2.30;;;;;;;;;;4990075;28;20281;-69
2023/12/13 12:54:48;;;;;;;20.63;5.38;;;;;;;;;;4988498;28;20276;-69
2023/12/13 12:57:13;;;;;;;14.18;2.63;;;;;;;;;;4991238;28;20112;-69
2023/12/13 12:59:39;;;;;;;7.13;2.03;;;;;;;;;;4989396;28;20022;-69
2023/12/13 13:02:05;;;;;;;10.77;2.40;;;;;;;;;;4988723;28;20040;-69
2023/12/13 13:04:30;;;;;;;9.52;2.17;;;;;;;;;;4991471;28;20397;-69
2023/12/13 13:06:56;;;;;;;10.82;2.20;;;;;;;;;;4987759;28;20027;-69
2023/12/13 13:09:21;;;;;;;18.42;2.50;;;;;;;;;;4989547;28;20022;-69
2023/12/13 13:11:46;;;;;;;11.20;2.42;;;;;;;;;;4988871;28;20382;-69
2023/12/13 13:14:12;;;;;;;7.28;1.60;;;;;;;;;;4990251;28;20505;-69
2023/12/13 13:16:37;;;;;;;15.73;2.13;;;;;;;;;;4988109;28;20540;-69
2023/12/13 13:19:04;;;;;;;14.20;2.60;;;;;;;;;;4989926;28;20269;-69
2023/12/13 13:21:29;;;;;;;10.57;2.33;;;;;;;;;;4989462;28;20070;-69
2023/12/13 13:23:54;;;;;;;10.33;1.93;;;;;;;;;;4989551;28;20499;-69
2023/12/13 13:26:20;;;;;;;14.65;1.63;;;;;;;;;;4987561;28;20365;-69
2023/12/13 13:28:45;;;;;;;9.60;2.08;;;;;;;;;;4989317;28;20022;-69
2023/12/13 13:31:12;;;;;;;8.45;2.22;;;;;;;;;;4988572;28;20057;-69
2023/12/13 13:33:38;;;;;;;7.07;1.77;;;;;;;;;;4987028;28;20084;-69
2023/12/13 13:36:05;;;;;;;11.05;2.50;;;;;;;;;;4968557;28;20434;-69
2023/12/13 13:38:30;;;;;;;8.05;1.77;;;;;;;;;;4989344;28;20493;-69
2023/12/13 13:40:55;;;;;;;9.87;1.73;;;;;;;;;;4984735;28;20034;-69
2023/12/13 13:43:20;;;;;;;5.13;1.83;;;;;;;;;;4988901;28;20299;-69
2023/12/13 13:45:46;;;;;;;9.43;2.35;;;;;;;;;;4987047;28;20262;-69
2023/12/13 13:48:11;;;;;;;16.57;3.00;;;;;;;;;;4987371;28;20022;-69
2023/12/13 13:50:36;;;;;;;15.02;2.45;;;;;;;;;;4989414;28;20304;-69
2023/12/13 13:53:04;;;;;;;12.87;2.40;;;;;;;;;;4988536;28;20019;-69
2023/12/13 13:55:29;;;;;;;9.55;2.63;;;;;;;;;;4986910;28;20274;-69
2023/12/13 13:57:55;;;;;;;9.87;1.90;;;;;;;;;;4988541;28;20026;-69
2023/12/13 14:00:20;;;;;;;15.50;2.30;;;;;;;;;;4986911;28;20315;-69
2023/12/13 14:02:46;;;;;;;13.82;2.50;;;;;;;;;;4987802;28;20293;-69
2023/12/13 14:05:11;;;;;;;8.75;2.03;;;;;;;;;;4986803;28;20091;-69
2023/12/13 14:07:37;;;;;;;8.88;2.30;;;;;;;;;;4988751;28;20481;-69
2023/12/13 14:10:03;;;;;;;10.05;2.35;;;;;;;;;;4989464;28;20469;-69
2023/12/13 14:12:29;;;;;;;8.90;1.98;;;;;;;;;;4989205;28;20098;-69
2023/12/13 14:14:56;;;;;;;9.98;1.88;;;;;;;;;;4986984;28;20091;-69
2023/12/13 14:17:22;;;;;;;6.70;1.63;;;;;;;;;;4987614;28;20020;-69
2023/12/13 14:19:47;;;;;;;9.77;1.98;;;;;;;;;;4987483;28;20093;-70
2023/12/13 14:22:12;;;;;;;7.87;2.30;;;;;;;;;;4987049;28;20045;-69
2023/12/13 14:24:38;;;;;;;14.73;2.90;;;;;;;;;;4988481;28;20360;-69
2023/12/13 14:27:03;;;;;;;9.25;2.20;;;;;;;;;;4985426;28;20073;-69
2023/12/13 14:29:28;;;;;;;12.15;2.60;;;;;;;;;;4987479;28;20018;-69